METAR OBSERVATIONS
Looking Back 6 hours

  • KPBF 262253Z AUTO 35006KT 10SM CLR 20/11 A2992 RMK AO2 SLP131 T02000106 =
  • KPBF 262153Z AUTO 35009KT 10SM FEW075 19/11 A2991 RMK AO2 SLP128 T01940106 =
  • KPBF 262053Z AUTO 36009KT 10SM FEW060 OVC075 19/11 A2992 RMK AO2 SLP130 T01940106 58009 =
  • KPBF 261953Z AUTO 31010KT 10SM FEW038 BKN060 19/11 A2993 RMK AO2 SLP135 T01890106 =
  • KPBF 261853Z AUTO 31009KT 10SM FEW030 SCT038 BKN048 18/11 A2994 RMK AO2 SLP138 T01830111 =
  • KPBF 261753Z AUTO 35010KT 10SM SCT024 BKN032 17/12 A2995 RMK AO2 SLP140 T01720117 10172 20122 51003 =
    ________________________________________